createdAt,value
2022-11-29T00:01:21.547Z,98863.50
2022-11-29T00:03:49.055Z,98859.84
2022-11-29T00:06:18.894Z,98859.66
2022-11-29T00:08:46.603Z,98856.53
2022-11-29T00:11:38.994Z,98857.28
2022-11-29T00:14:08.319Z,98849.53
2022-11-29T00:16:35.678Z,98847.38
2022-11-29T00:19:03.643Z,98851.81
2022-11-29T00:21:30.685Z,98845.78
2022-11-29T00:23:57.809Z,98845.09
2022-11-29T00:26:25.255Z,98846.66
2022-11-29T00:28:52.254Z,98830.94
2022-11-29T00:31:22.679Z,98838.28
2022-11-29T00:33:50.523Z,98839.75
2022-11-29T00:36:18.407Z,98840.22
2022-11-29T00:38:45.765Z,98832.94
2022-11-29T00:41:13.093Z,98832.22
2022-11-29T00:43:40.492Z,98829.06
2022-11-29T00:46:07.931Z,98834.59
2022-11-29T00:48:36.007Z,98830.00
2022-11-29T00:51:04.475Z,98829.34
2022-11-29T00:53:32.519Z,98833.19
2022-11-29T00:55:59.626Z,98835.88
2022-11-29T00:58:26.804Z,98826.69
2022-11-29T01:00:54.719Z,98829.59
2022-11-29T01:03:22.013Z,98830.78
2022-11-29T01:05:49.141Z,98830.75
2022-11-29T01:08:17.447Z,98823.19
2022-11-29T01:10:44.567Z,98824.88
2022-11-29T01:13:12.144Z,98824.16
2022-11-29T01:15:39.837Z,98820.28
2022-11-29T01:18:07.001Z,98821.22
2022-11-29T01:20:34.019Z,98812.94
2022-11-29T01:23:01.007Z,98818.28
2022-11-29T01:25:28.114Z,98816.81
2022-11-29T01:27:55.193Z,98815.31
2022-11-29T01:30:22.234Z,98818.50
2022-11-29T01:32:49.436Z,98809.47
2022-11-29T01:35:16.497Z,98812.81
2022-11-29T01:37:43.606Z,98807.16
2022-11-29T01:40:11.040Z,98804.69
2022-11-29T01:42:38.169Z,98804.44
2022-11-29T01:45:25.250Z,98801.50
2022-11-29T01:47:57.248Z,98805.34
2022-11-29T01:50:24.392Z,98800.97
2022-11-29T01:52:51.488Z,98798.97
2022-11-29T01:55:19.468Z,98794.56
2022-11-29T01:57:47.333Z,98795.22
2022-11-29T02:00:18.203Z,98802.69
2022-11-29T02:02:52.456Z,98793.44
2022-11-29T02:05:20.681Z,98801.19
2022-11-29T02:07:52.216Z,98795.84
2022-11-29T02:10:21.033Z,98792.16
2022-11-29T02:13:01.591Z,98796.03
2022-11-29T02:15:51.130Z,98789.25
2022-11-29T02:18:59.533Z,98800.84
2022-11-29T02:21:45.992Z,98805.16
2022-11-29T02:24:42.864Z,98798.81
2022-11-29T02:28:04.135Z,98801.72
2022-11-29T02:30:33.795Z,98799.47
2022-11-29T02:33:07.061Z,98798.94
2022-11-29T02:36:09.309Z,98799.19
2022-11-29T02:38:50.806Z,98790.84
2022-11-29T02:41:43.741Z,98779.03
2022-11-29T02:44:41.407Z,98786.81
2022-11-29T02:47:15.907Z,98780.50
2022-11-29T02:49:57.444Z,98792.09
2022-11-29T02:52:59.534Z,98785.50
2022-11-29T02:56:09.310Z,98790.13
2022-11-29T02:58:42.107Z,98789.38
2022-11-29T03:01:17.511Z,98788.41
2022-11-29T03:03:47.631Z,98785.09
2022-11-29T03:06:34.275Z,98781.78
2022-11-29T03:09:06.945Z,98782.31
2022-11-29T03:11:34.064Z,98771.63
2022-11-29T03:14:21.535Z,98774.38
2022-11-29T03:17:03.656Z,98773.88
2022-11-29T03:19:37.292Z,98773.63
2022-11-29T03:22:21.185Z,98767.28
2022-11-29T03:24:55.024Z,98764.63
2022-11-29T03:27:25.829Z,98768.97
2022-11-29T03:29:59.285Z,98764.09
2022-11-29T03:32:39.416Z,98764.19
2022-11-29T03:35:19.201Z,98754.31
2022-11-29T03:38:04.772Z,98759.22
2022-11-29T03:40:41.045Z,98749.09
2022-11-29T03:43:17.993Z,98742.28
2022-11-29T03:46:12.621Z,98751.47
2022-11-29T03:49:03.107Z,98751.47
2022-11-29T03:51:50.977Z,98747.63
2022-11-29T03:54:40.938Z,98744.28
2022-11-29T03:57:08.240Z,98751.34
2022-11-29T04:00:07.286Z,98753.81
2022-11-29T04:03:01.132Z,98748.97
2022-11-29T04:06:16.098Z,98743.84
2022-11-29T04:09:09.949Z,98742.84
2022-11-29T04:11:59.336Z,98745.25
2022-11-29T04:14:34.571Z,98740.94
2022-11-29T04:17:10.281Z,98736.53
2022-11-29T04:19:46.235Z,98733.59
2022-11-29T04:22:25.076Z,98735.47
2022-11-29T04:25:30.596Z,98722.31
2022-11-29T04:28:31.511Z,98727.03
2022-11-29T04:31:01.696Z,98718.94
2022-11-29T04:33:54.396Z,98721.94
2022-11-29T04:36:39.566Z,98717.78
2022-11-29T04:39:28.260Z,98719.25
2022-11-29T04:42:13.499Z,98721.22
2022-11-29T04:45:09.970Z,98718.84
2022-11-29T04:47:55.423Z,98715.34
2022-11-29T04:50:34.921Z,98708.84
2022-11-29T04:53:10.812Z,98702.97
2022-11-29T04:55:52.747Z,98699.25
2022-11-29T04:58:46.591Z,98703.50
2022-11-29T05:01:32.607Z,98702.69
2022-11-29T05:04:56.955Z,98705.25
2022-11-29T05:07:34.197Z,98697.53
2022-11-29T05:10:14.266Z,98698.06
2022-11-29T05:13:01.565Z,98696.84
2022-11-29T05:15:43.713Z,98696.34
2022-11-29T05:18:38.484Z,98698.44
2022-11-29T05:21:15.081Z,98712.03
2022-11-29T05:24:15.802Z,98710.19
2022-11-29T05:27:10.653Z,98707.78
2022-11-29T05:29:46.687Z,98700.56
2022-11-29T05:32:32.812Z,98710.06
2022-11-29T05:35:18.112Z,98705.38
2022-11-29T05:37:52.429Z,98699.00
2022-11-29T05:40:44.657Z,98708.03
2022-11-29T05:43:59.343Z,98700.53
2022-11-29T05:46:54.090Z,98718.19
2022-11-29T05:49:30.200Z,98701.19
2022-11-29T05:52:00.085Z,98700.69
2022-11-29T05:55:05.779Z,98708.56
2022-11-29T05:57:59.851Z,98702.31
2022-11-29T06:00:49.117Z,98703.25
2022-11-29T06:03:48.318Z,98711.69
2022-11-29T06:06:45.924Z,98720.72
2022-11-29T06:09:29.201Z,98727.31
2022-11-29T06:12:03.003Z,98723.50
2022-11-29T06:14:47.142Z,98725.78
2022-11-29T06:17:25.824Z,98725.78
2022-11-29T06:20:30.349Z,98729.88
2022-11-29T06:23:12.585Z,98722.63
2022-11-29T06:26:03.620Z,98725.78
2022-11-29T06:29:01.961Z,98726.53
2022-11-29T06:31:40.560Z,98720.84
2022-11-29T06:34:10.681Z,98730.69
2022-11-29T06:37:11.757Z,98732.84
2022-11-29T06:39:39.034Z,98737.41
2022-11-29T06:42:06.142Z,98739.38
2022-11-29T06:44:33.475Z,98736.72
2022-11-29T06:47:19.836Z,98741.28
2022-11-29T06:49:52.181Z,98738.41
2022-11-29T06:52:41.934Z,98746.97
2022-11-29T06:55:11.989Z,98744.59
2022-11-29T06:57:54.130Z,98741.41
2022-11-29T07:00:23.988Z,98738.28
2022-11-29T07:02:54.081Z,98740.53
2022-11-29T07:05:32.314Z,98743.44
2022-11-29T07:08:21.565Z,98745.09
2022-11-29T07:10:53.544Z,98750.44
2022-11-29T07:13:21.293Z,98753.56
2022-11-29T07:16:07.499Z,98755.03
2022-11-29T07:18:45.326Z,98755.50
2022-11-29T07:21:51.009Z,98759.38
2022-11-29T07:24:27.888Z,98752.56
2022-11-29T07:27:20.909Z,98758.44
2022-11-29T07:29:56.662Z,98760.63
2022-11-29T07:32:24.189Z,98758.97
2022-11-29T07:35:38.728Z,98757.78
2022-11-29T07:38:18.234Z,98766.97
2022-11-29T07:41:00.962Z,98757.50
2022-11-29T07:43:34.281Z,98749.78
2022-11-29T07:46:01.648Z,98759.22
2022-11-29T07:48:28.893Z,98757.56
2022-11-29T07:50:57.169Z,98761.22
2022-11-29T07:53:24.751Z,98760.78
2022-11-29T07:55:52.208Z,98756.16
2022-11-29T07:58:19.919Z,98767.38
2022-11-29T08:00:47.267Z,98771.75
2022-11-29T08:03:14.953Z,98772.03
2022-11-29T08:05:46.657Z,98773.25
2022-11-29T08:08:14.136Z,98769.09
2022-11-29T08:10:41.224Z,98769.09
2022-11-29T08:13:08.447Z,98774.69
2022-11-29T08:15:35.532Z,98776.44
2022-11-29T08:18:03.542Z,98780.84
2022-11-29T08:20:30.528Z,98785.97
2022-11-29T08:23:00.611Z,98785.50
2022-11-29T08:25:28.551Z,98792.31
2022-11-29T08:27:56.533Z,98804.63
2022-11-29T08:30:24.205Z,98799.25
2022-11-29T08:32:52.049Z,98800.16
2022-11-29T08:35:21.531Z,98801.63
2022-11-29T08:37:48.726Z,98799.97
2022-11-29T08:40:17.207Z,98807.28
2022-11-29T08:42:44.278Z,98811.97
2022-11-29T08:45:12.187Z,98813.00
2022-11-29T08:47:40.520Z,98821.06
2022-11-29T08:50:14.803Z,98820.91
2022-11-29T08:53:06.682Z,98820.50
2022-11-29T08:55:40.822Z,98819.09
2022-11-29T08:58:12.515Z,98820.31
2022-11-29T09:00:40.332Z,98827.53
2022-11-29T09:03:26.299Z,98825.78
2022-11-29T09:05:54.031Z,98818.25
2022-11-29T09:08:21.380Z,98822.84
2022-11-29T09:10:49.631Z,98832.78
2022-11-29T09:13:18.420Z,98836.19
2022-11-29T09:15:45.811Z,98832.03
2022-11-29T09:18:13.002Z,98836.94
2022-11-29T09:20:43.943Z,98835.25
2022-11-29T09:23:12.372Z,98838.91
2022-11-29T09:25:39.455Z,98841.13
2022-11-29T09:28:07.147Z,98844.34
2022-11-29T09:30:37.184Z,98848.72
2022-11-29T09:33:05.204Z,98841.25
2022-11-29T09:35:33.280Z,98846.16
2022-11-29T09:38:00.520Z,98842.84
2022-11-29T09:41:05.780Z,98847.75
2022-11-29T09:43:49.275Z,98839.53
2022-11-29T09:46:38.315Z,98850.28
2022-11-29T09:49:24.813Z,98853.94
2022-11-29T09:52:15.686Z,98850.13
2022-11-29T09:55:19.909Z,98851.41
2022-11-29T09:57:49.127Z,98850.97
2022-11-29T10:00:20.390Z,98854.63
2022-11-29T10:03:02.842Z,98862.16
2022-11-29T10:05:35.988Z,98858.09
2022-11-29T10:08:23.601Z,98860.81
2022-11-29T10:10:57.199Z,98865.19
2022-11-29T10:13:34.232Z,98864.91
2022-11-29T10:16:15.318Z,98868.25
2022-11-29T10:19:11.845Z,98867.28
2022-11-29T10:21:44.327Z,98873.69
2022-11-29T10:24:17.842Z,98868.41
2022-11-29T10:26:45.967Z,98869.13
2022-11-29T10:29:16.964Z,98866.66
2022-11-29T10:31:49.738Z,98869.59
2022-11-29T10:34:22.893Z,98870.34
2022-11-29T10:36:54.171Z,98871.59
2022-11-29T10:39:30.556Z,98866.53
2022-11-29T10:42:02.575Z,98875.09
2022-11-29T10:44:31.669Z,98868.34
2022-11-29T10:47:04.457Z,98872.22
2022-11-29T10:49:37.010Z,98870.25
2022-11-29T10:52:04.133Z,98865.66
2022-11-29T10:54:42.474Z,98864.31
2022-11-29T10:57:15.440Z,98859.03
2022-11-29T10:59:58.271Z,98862.47
2022-11-29T11:02:25.877Z,98860.28
2022-11-29T11:04:53.002Z,98858.19
2022-11-29T11:07:31.454Z,98841.88
2022-11-29T11:09:59.975Z,98851.28
2022-11-29T11:12:32.886Z,98852.03
2022-11-29T11:15:24.723Z,98842.53
2022-11-29T11:17:58.106Z,98838.13
2022-11-29T11:20:27.137Z,98842.22
2022-11-29T11:23:21.405Z,98834.91
2022-11-29T11:25:50.429Z,98844.38
2022-11-29T11:28:34.601Z,98835.13
2022-11-29T11:31:09.924Z,98833.44
2022-11-29T11:33:39.784Z,98825.94
2022-11-29T11:36:15.664Z,98821.03
2022-11-29T11:38:52.935Z,98807.94
2022-11-29T11:42:08.657Z,98811.13
2022-11-29T11:44:50.751Z,98801.41
2022-11-29T11:47:24.601Z,98812.56
2022-11-29T11:50:07.205Z,98813.50
2022-11-29T11:52:42.800Z,98809.16
2022-11-29T11:55:30.187Z,98813.09
2022-11-29T11:58:12.438Z,98807.03
2022-11-29T12:01:02.786Z,98799.50
2022-11-29T12:03:37.931Z,98798.78
2022-11-29T12:06:25.383Z,98797.38
2022-11-29T12:09:18.962Z,98794.47
2022-11-29T12:12:05.085Z,98808.19
2022-11-29T12:14:36.427Z,98802.38
2022-11-29T12:17:51.134Z,98796.06
2022-11-29T12:20:40.179Z,98797.81
2022-11-29T12:23:13.504Z,98795.38
2022-11-29T12:25:46.770Z,98788.56
2022-11-29T12:28:20.249Z,98780.06
2022-11-29T12:31:18.825Z,98776.19
2022-11-29T12:33:45.955Z,98778.63
2022-11-29T12:36:28.650Z,98765.69
2022-11-29T12:39:19.290Z,98767.66
2022-11-29T12:42:16.330Z,98752.31
2022-11-29T12:45:05.827Z,98754.75
2022-11-29T12:47:53.890Z,98749.88
2022-11-29T12:50:38.635Z,98743.31
2022-11-29T12:53:36.673Z,98731.16
2022-11-29T12:56:27.969Z,98736.00
2022-11-29T12:59:22.801Z,98726.75
2022-11-29T13:02:17.774Z,98723.34
2022-11-29T13:05:12.355Z,98720.44
2022-11-29T13:07:39.434Z,98717.00
2022-11-29T13:10:44.089Z,98703.59
2022-11-29T13:13:27.850Z,98712.84
2022-11-29T13:15:57.996Z,98704.59
2022-11-29T13:18:37.556Z,98702.88
2022-11-29T13:21:17.466Z,98700.66
2022-11-29T13:24:08.695Z,98700.19
2022-11-29T13:26:38.234Z,98694.84
2022-11-29T13:29:07.043Z,98702.88
2022-11-29T13:31:34.830Z,98693.88
2022-11-29T13:34:08.670Z,98696.03
2022-11-29T13:37:15.638Z,98692.38
2022-11-29T13:40:09.120Z,98692.38
2022-11-29T13:43:11.859Z,98693.38
2022-11-29T13:45:58.912Z,98692.66
2022-11-29T13:48:28.667Z,98689.47
2022-11-29T13:50:57.549Z,98678.81
2022-11-29T13:53:31.055Z,98682.69
2022-11-29T13:56:01.243Z,98680.72
2022-11-29T13:58:28.328Z,98679.72
2022-11-29T14:01:03.044Z,98675.63
2022-11-29T14:03:45.257Z,98671.00
2022-11-29T14:06:23.846Z,98669.06
2022-11-29T14:11:55.628Z,98668.34
2022-11-29T14:14:29.094Z,98670.50
2022-11-29T14:16:59.303Z,98671.00
2022-11-29T14:19:34.989Z,98668.78
2022-11-29T14:22:02.151Z,98653.72
2022-11-29T14:24:38.265Z,98659.09
2022-11-29T14:27:13.107Z,98648.88
2022-11-29T14:29:54.954Z,98648.13
2022-11-29T14:32:45.905Z,98654.47
2022-11-29T14:35:22.349Z,98649.81
2022-11-29T14:38:03.921Z,98655.97
2022-11-29T14:40:43.313Z,98643.78
2022-11-29T14:43:38.211Z,98640.59
2022-11-29T14:46:17.329Z,98644.50
2022-11-29T14:48:56.556Z,98633.06
2022-11-29T14:51:26.300Z,98634.28
2022-11-29T14:54:13.770Z,98639.38
2022-11-29T14:56:45.357Z,98630.88
2022-11-29T14:59:50.653Z,98627.72
2022-11-29T15:02:20.635Z,98633.06
2022-11-29T15:04:52.378Z,98624.78
2022-11-29T15:07:28.994Z,98626.00
2022-11-29T15:10:01.047Z,98621.16
2022-11-29T15:12:34.164Z,98624.81
2022-11-29T15:15:10.294Z,98634.28
2022-11-29T15:17:43.474Z,98638.16
2022-11-29T15:20:22.451Z,98635.03
2022-11-29T15:22:55.624Z,98632.59
2022-11-29T15:25:26.723Z,98637.47
2022-11-29T15:28:01.854Z,98637.94
2022-11-29T15:30:40.450Z,98631.38
2022-11-29T15:33:18.818Z,98639.63
2022-11-29T15:35:52.084Z,98645.25
2022-11-29T15:38:23.699Z,98631.38
2022-11-29T15:40:55.625Z,98642.31
2022-11-29T15:43:36.458Z,98634.06
2022-11-29T15:46:03.630Z,98630.16
2022-11-29T15:48:32.522Z,98632.34
2022-11-29T15:51:22.894Z,98632.59
2022-11-29T15:54:11.765Z,98636.47
2022-11-29T15:56:52.516Z,98627.47
2022-11-29T15:59:37.211Z,98633.56
2022-11-29T16:02:25.300Z,98634.56
2022-11-29T16:04:56.160Z,98630.88
2022-11-29T16:07:26.178Z,98630.13
2022-11-29T16:10:02.187Z,98632.84
2022-11-29T16:12:29.433Z,98640.63
2022-11-29T16:14:58.675Z,98639.38
2022-11-29T16:17:28.405Z,98636.97
2022-11-29T16:20:25.482Z,98644.28
2022-11-29T16:23:13.997Z,98645.00
2022-11-29T16:26:00.093Z,98650.56
2022-11-29T16:28:33.624Z,98650.78
2022-11-29T16:31:00.853Z,98649.56
2022-11-29T16:33:28.106Z,98650.81
2022-11-29T16:36:13.639Z,98657.34
2022-11-29T16:38:47.045Z,98653.94
2022-11-29T16:41:26.060Z,98656.88
2022-11-29T16:43:55.788Z,98652.00
2022-11-29T16:46:22.811Z,98660.50
2022-11-29T16:48:50.661Z,98664.91
2022-11-29T16:51:39.024Z,98657.84
2022-11-29T16:54:34.541Z,98669.75
2022-11-29T16:57:07.145Z,98665.09
2022-11-29T16:59:35.502Z,98676.00
2022-11-29T17:02:02.580Z,98674.53
2022-11-29T17:04:29.705Z,98679.88
2022-11-29T17:06:57.564Z,98685.44
2022-11-29T17:09:30.710Z,98687.16
2022-11-29T17:12:00.179Z,98679.81
2022-11-29T17:14:27.926Z,98689.81
2022-11-29T17:16:55.682Z,98691.72
2022-11-29T17:19:24.128Z,98684.19
2022-11-29T17:21:52.301Z,98685.63
2022-11-29T17:24:21.329Z,98689.03
2022-11-29T17:26:48.870Z,98693.16
2022-11-29T17:29:17.636Z,98686.16
2022-11-29T17:31:45.905Z,98690.56
2022-11-29T17:34:13.355Z,98695.41
2022-11-29T17:36:40.812Z,98685.94
2022-11-29T17:39:08.486Z,98685.69
2022-11-29T17:41:36.285Z,98683.97
2022-11-29T17:44:04.097Z,98683.47
2022-11-29T17:46:33.868Z,98673.75
2022-11-29T17:49:03.340Z,98674.72
2022-11-29T17:54:18.095Z,98686.84
2022-11-29T17:56:45.293Z,98672.75
2022-11-29T17:59:12.466Z,98677.13
2022-11-29T18:01:39.629Z,98675.66
2022-11-29T18:04:08.639Z,98679.09
2022-11-29T18:06:40.811Z,98678.09
2022-11-29T18:09:09.957Z,98683.66
2022-11-29T18:11:46.877Z,98678.53
2022-11-29T18:14:18.074Z,98687.78
2022-11-29T18:16:45.894Z,98684.13
2022-11-29T18:19:16.102Z,98689.28
2022-11-29T18:21:43.546Z,98689.50
2022-11-29T18:24:11.019Z,98682.75
2022-11-29T18:26:39.438Z,98682.97
2022-11-29T18:29:07.377Z,98684.44
2022-11-29T18:31:37.970Z,98682.03
2022-11-29T18:34:07.400Z,98689.06
2022-11-29T18:36:38.107Z,98681.53
2022-11-29T18:39:11.013Z,98693.66
2022-11-29T18:41:38.836Z,98692.22
2022-11-29T18:44:08.702Z,98691.50
2022-11-29T18:46:38.052Z,98698.28
2022-11-29T18:49:07.668Z,98700.22
2022-11-29T18:51:35.700Z,98695.63
2022-11-29T18:54:03.452Z,98708.97
2022-11-29T18:56:33.123Z,98705.56
2022-11-29T18:59:11.591Z,98703.13
2022-11-29T19:01:42.800Z,98707.25
2022-11-29T19:04:15.946Z,98711.09
2022-11-29T19:06:43.493Z,98712.09
2022-11-29T19:09:16.866Z,98713.28
2022-11-29T19:11:44.135Z,98715.94
2022-11-29T19:14:13.028Z,98709.16
2022-11-29T19:16:43.331Z,98713.28
2022-11-29T19:19:11.013Z,98720.34
2022-11-29T19:21:40.265Z,98716.97
2022-11-29T19:24:14.022Z,98715.03
2022-11-29T19:26:44.881Z,98713.13
2022-11-29T19:29:13.056Z,98715.59
2022-11-29T19:31:40.313Z,98713.13
2022-11-29T19:34:07.670Z,98721.63
2022-11-29T19:36:34.783Z,98722.81
2022-11-29T19:39:02.807Z,98719.41
2022-11-29T19:41:35.667Z,98725.44
2022-11-29T19:44:06.253Z,98727.59
2022-11-29T19:46:39.955Z,98726.13
2022-11-29T19:49:07.680Z,98727.59
2022-11-29T19:51:35.579Z,98721.97
2022-11-29T19:54:05.420Z,98723.94
2022-11-29T19:56:32.938Z,98723.94
2022-11-29T19:59:00.173Z,98722.25
2022-11-29T20:01:40.166Z,98723.72
2022-11-29T20:04:08.576Z,98721.28
2022-11-29T20:06:35.845Z,98728.81
2022-11-29T20:09:02.817Z,98718.59
2022-11-29T20:11:29.837Z,98727.31
2022-11-29T20:13:59.879Z,98725.88
2022-11-29T20:16:28.776Z,98720.28
2022-11-29T20:18:58.610Z,98724.16
2022-11-29T20:21:28.773Z,98722.72
2022-11-29T20:24:01.372Z,98731.69
2022-11-29T20:26:29.285Z,98733.69
2022-11-29T20:28:56.392Z,98729.06
2022-11-29T20:31:24.138Z,98734.88
2022-11-29T20:33:53.240Z,98729.56
2022-11-29T20:36:48.010Z,98729.09
2022-11-29T20:39:31.185Z,98734.88
2022-11-29T20:42:29.391Z,98733.97
2022-11-29T20:44:58.786Z,98736.88
2022-11-29T20:47:27.419Z,98737.13
2022-11-29T20:49:55.138Z,98733.91
2022-11-29T20:52:38.517Z,98743.63
2022-11-29T20:55:06.140Z,98742.16
2022-11-29T20:57:33.094Z,98751.38
2022-11-29T21:00:00.421Z,98749.91
2022-11-29T21:02:27.449Z,98747.72
2022-11-29T21:04:54.454Z,98753.34
2022-11-29T21:07:21.512Z,98758.19
2022-11-29T21:09:48.575Z,98755.78
2022-11-29T21:12:16.157Z,98764.06
2022-11-29T21:14:44.484Z,98760.19
2022-11-29T21:17:11.989Z,98756.81
2022-11-29T21:19:40.245Z,98759.97
2022-11-29T21:22:09.903Z,98757.56
2022-11-29T21:24:48.806Z,98760.00
2022-11-29T21:27:20.683Z,98765.13
2022-11-29T21:29:47.954Z,98763.66
2022-11-29T21:32:24.158Z,98765.34
2022-11-29T21:34:52.691Z,98760.00
2022-11-29T21:37:28.073Z,98760.47
2022-11-29T21:39:55.631Z,98749.78
2022-11-29T21:42:22.583Z,98746.41
2022-11-29T21:44:49.665Z,98751.00
2022-11-29T21:47:16.835Z,98743.22
2022-11-29T21:49:43.843Z,98745.41
2022-11-29T21:52:11.097Z,98740.50
2022-11-29T21:54:38.199Z,98743.91
2022-11-29T21:57:05.400Z,98738.81
2022-11-29T21:59:32.347Z,98740.00
2022-11-29T22:01:59.419Z,98743.13
2022-11-29T22:04:26.910Z,98736.53
2022-11-29T22:06:53.995Z,98736.22
2022-11-29T22:09:20.989Z,98737.91
2022-11-29T22:11:48.150Z,98745.63
2022-11-29T22:14:19.363Z,98748.06
2022-11-29T22:17:00.524Z,98747.81
2022-11-29T22:19:30.071Z,98746.81
2022-11-29T22:21:59.618Z,98742.91
2022-11-29T22:24:32.027Z,98737.03
2022-11-29T22:26:59.092Z,98739.25
2022-11-29T22:29:26.278Z,98739.97
2022-11-29T22:31:55.832Z,98731.75
2022-11-29T22:34:25.457Z,98723.00
2022-11-29T22:36:52.568Z,98737.03
2022-11-29T22:39:19.765Z,98729.53
2022-11-29T22:41:53.677Z,98729.81
2022-11-29T22:44:21.708Z,98732.72
2022-11-29T22:46:48.914Z,98731.03
2022-11-29T22:49:16.022Z,98725.69
2022-11-29T22:51:44.194Z,98721.09
2022-11-29T22:54:11.963Z,98718.41
2022-11-29T22:56:40.979Z,98715.00
2022-11-29T22:59:08.699Z,98719.44
2022-11-29T23:01:38.172Z,98716.47
2022-11-29T23:04:07.611Z,98710.41
2022-11-29T23:06:37.640Z,98712.09
2022-11-29T23:09:10.952Z,98709.88
2022-11-29T23:11:38.662Z,98706.28
2022-11-29T23:14:05.756Z,98707.47
2022-11-29T23:16:33.854Z,98710.69
2022-11-29T23:19:01.578Z,98710.91
2022-11-29T23:21:35.389Z,98706.06
2022-11-29T23:24:02.339Z,98710.13
2022-11-29T23:26:40.310Z,98702.84
2022-11-29T23:29:10.180Z,98704.47
2022-11-29T23:31:37.522Z,98706.38
2022-11-29T23:34:04.836Z,98694.22
2022-11-29T23:36:32.244Z,98703.19
2022-11-29T23:38:59.323Z,98701.72
2022-11-29T23:41:26.427Z,98697.84
2022-11-29T23:43:53.418Z,98699.06
2022-11-29T23:46:23.400Z,98698.31
2022-11-29T23:48:50.949Z,98684.94
2022-11-29T23:51:19.283Z,98696.03
2022-11-29T23:53:47.181Z,98695.50
2022-11-29T23:56:16.770Z,98697.00
2022-11-29T23:58:44.865Z,98697.72
